Time;durP1;ratioP1;P1;durP2;ratioP2;P2;SDS_P1;SDS_P2;PMS_P1;PMS_P2;Temp;Humidity;BMP_temperature;BMP_pressure;BME280_temperature;BME280_humidity;BME280_pressure;Samples;Min_cycle;Max_cycle;Signal;HPM_P1;HPM_P2
2023/12/15 00:01:14;;;;;;;;;6.33;6.33;;;;;11.18;69.47;102460.59;5071865;28;45325;-77
2023/12/15 00:03:39;;;;;;;;;8.00;7.00;;;;;11.61;69.75;102532.16;5060808;28;45068;-79
2023/12/15 00:06:06;;;;;;;;;9.00;6.67;;;;;11.66;69.51;102539.84;5053344;28;44878;-80
2023/12/15 00:08:31;;;;;;;;;5.67;5.67;;;;;11.50;69.65;102516.09;5051151;28;45302;-80
2023/12/15 00:11:00;;;;;;;;;8.00;6.00;;;;;11.59;69.24;102528.75;5054279;28;45729;-78
2023/12/15 00:13:25;;;;;;;;;6.00;6.00;;;;;11.69;69.72;102545.81;5061055;28;44693;-77
2023/12/15 00:15:51;;;;;;;;;6.33;5.33;;;;;11.66;69.30;102556.69;5055827;28;45184;-79
2023/12/15 00:18:16;;;;;;;;;6.67;6.67;;;;;11.67;69.67;102566.41;5056643;28;45042;-81
2023/12/15 00:20:43;;;;;;;;;6.00;5.00;;;;;11.54;69.98;102538.88;5065964;28;45568;-81
2023/12/15 00:23:08;;;;;;;;;6.33;6.33;;;;;11.57;69.56;102544.84;5074413;28;45244;-78
2023/12/15 00:25:34;;;;;;;;;6.67;6.67;;;;;11.55;69.89;102536.13;5074031;28;45388;-80
2023/12/15 00:27:59;;;;;;;;;5.33;5.33;;;;;11.10;69.73;102459.41;5073084;28;45142;-79
2023/12/15 00:30:24;;;;;;;;;7.00;4.67;;;;;10.24;69.88;102332.28;5074725;28;45323;-78
2023/12/15 00:32:50;;;;;;;;;5.00;4.33;;;;;11.22;69.74;102486.06;5075745;28;45283;-77
2023/12/15 00:35:15;;;;;;;;;6.67;5.67;;;;;11.69;70.40;102552.97;5074667;28;45018;-79
2023/12/15 00:37:40;;;;;;;;;7.00;5.33;;;;;11.55;70.06;102535.25;5069511;28;45032;-79
2023/12/15 00:40:09;;;;;;;;;5.00;5.00;;;;;11.67;70.37;102566.41;5053965;28;45478;-82
2023/12/15 00:42:34;;;;;;;;;6.00;4.00;;;;;10.87;70.52;102429.91;5053670;28;44957;-78
2023/12/15 00:45:00;;;;;;;;;6.00;6.00;;;;;11.67;70.64;102566.41;5054313;28;45603;-78
2023/12/15 00:47:26;;;;;;;;;5.67;3.33;;;;;11.52;70.32;102540.81;5055007;28;45157;-79
2023/12/15 00:49:52;;;;;;;;;9.00;8.00;;;;;11.42;70.36;102526.44;5055424;28;46108;-78
2023/12/15 00:52:17;;;;;;;;;8.00;7.00;;;;;11.65;70.21;102563.00;5052596;28;45239;-80
2023/12/15 00:54:43;;;;;;;;;7.33;7.33;;;;;11.27;70.68;102494.56;5049884;28;44890;-79
2023/12/15 00:57:08;;;;;;;;;6.00;6.00;;;;;11.19;70.48;102493.38;5050363;28;45895;-79
2023/12/15 00:59:34;;;;;;;;;6.33;6.33;;;;;11.66;70.04;102583.34;5050526;28;45408;-80
2023/12/15 01:01:59;;;;;;;;;8.00;7.33;;;;;11.68;70.78;102562.78;5049934;28;45237;-79
2023/12/15 01:04:24;;;;;;;;;7.00;7.00;;;;;11.62;70.25;102552.53;5050353;28;45185;-80
2023/12/15 01:06:50;;;;;;;;;8.00;8.00;;;;;11.64;70.33;102555.09;5050944;28;45248;-80
2023/12/15 01:09:22;;;;;;;;;6.00;6.00;;;;;10.55;70.42;102372.72;5065270;28;46166;-79
2023/12/15 01:11:48;;;;;;;;;9.00;6.00;;;;;11.46;70.10;102510.13;5071222;28;45086;-81
2023/12/15 01:14:13;;;;;;;;;7.33;7.33;;;;;11.72;70.53;102555.41;5065443;28;45057;-80
2023/12/15 01:16:47;;;;;;;;;10.33;9.00;;;;;11.71;70.42;102546.56;5049938;28;45248;-76
2023/12/15 01:19:14;;;;;;;;;8.00;7.33;;;;;11.74;70.52;102541.00;5050438;28;45938;-79
2023/12/15 01:21:39;;;;;;;;;9.33;7.00;;;;;11.20;70.21;102469.31;5049903;28;45215;-77
2023/12/15 01:24:05;;;;;;;;;10.00;10.00;;;;;11.76;70.17;102552.41;5069651;28;44953;-81
2023/12/15 01:26:30;;;;;;;;;7.33;7.33;;;;;11.76;70.07;102555.06;5065723;28;45201;-78
2023/12/15 01:28:56;;;;;;;;;9.50;9.00;;;;;11.53;70.31;102521.19;5052759;28;45817;-77
2023/12/15 01:31:21;;;;;;;;;7.67;6.67;;;;;11.43;70.27;102504.19;5055915;28;45098;-77
2023/12/15 01:33:46;;;;;;;;;8.67;8.67;;;;;11.72;70.82;102548.25;5053711;28;45219;-78
2023/12/15 01:36:12;;;;;;;;;9.00;9.00;;;;;11.65;70.59;102531.00;5052615;28;45819;-76
2023/12/15 01:38:37;;;;;;;;;9.67;9.67;;;;;11.41;70.61;102484.75;5049480;28;46082;-78
2023/12/15 01:41:04;;;;;;;;;11.00;10.00;;;;;11.64;70.24;102529.31;5050171;28;45007;-79
2023/12/15 01:43:29;;;;;;;;;14.33;12.33;;;;;11.26;70.63;102462.72;5051595;28;45027;-80
2023/12/15 01:45:55;;;;;;;;;13.00;10.00;;;;;11.67;70.17;102537.09;5062115;28;45269;-75
2023/12/15 01:48:24;;;;;;;;;13.33;10.00;;;;;11.73;70.21;102552.63;5051486;28;45432;-78
2023/12/15 01:50:49;;;;;;;;;11.00;9.33;;;;;11.79;70.27;102560.22;5059033;28;45577;-80
2023/12/15 01:53:15;;;;;;;;;9.00;7.67;;;;;11.83;70.48;102566.22;5072287;28;44903;-77
2023/12/15 01:55:40;;;;;;;;;14.00;12.67;;;;;11.83;70.76;102567.06;5071836;28;45043;-78
2023/12/15 01:58:05;;;;;;;;;11.00;11.00;;;;;11.79;70.39;102573.53;5032866;28;46490;-77
2023/12/15 02:00:31;;;;;;;;;11.67;10.00;;;;;11.67;70.25;102533.56;5035213;28;45418;-78
2023/12/15 02:02:56;;;;;;;;;15.00;12.33;;;;;11.72;70.35;102553.59;5034534;28;45859;-79
2023/12/15 02:05:21;;;;;;;;;16.33;13.00;;;;;11.79;70.35;102570.88;5033563;28;45619;-77
2023/12/15 02:07:47;;;;;;;;;15.00;13.67;;;;;11.74;70.56;102580.13;5042854;28;45496;-76
2023/12/15 02:10:12;;;;;;;;;14.33;14.33;;;;;11.92;70.42;102594.03;5053494;28;45388;-78
2023/12/15 02:12:37;;;;;;;;;14.67;13.67;;;;;11.86;70.73;102596.16;5053612;28;45459;-78
2023/12/15 02:15:03;;;;;;;;;15.33;14.67;;;;;11.91;70.40;102600.31;5053774;28;45226;-79
2023/12/15 02:17:28;;;;;;;;;14.67;11.00;;;;;11.75;70.90;102574.69;5054060;28;46434;-77
2023/12/15 02:19:54;;;;;;;;;16.33;13.33;;;;;11.78;70.42;102585.16;5039334;28;46009;-76
2023/12/15 02:22:26;;;;;;;;;14.00;13.33;;;;;11.95;70.95;102604.47;5058362;28;45429;-75
2023/12/15 02:24:52;;;;;;;;;16.00;16.00;;;;;11.89;70.40;102600.44;5070882;28;45071;-76
2023/12/15 02:27:17;;;;;;;;;23.33;16.67;;;;;11.82;70.39;102580.50;5068683;28;45644;-78
2023/12/15 02:29:42;;;;;;;;;12.67;11.67;;;;;11.99;70.51;102611.28;5064015;28;45464;-76
2023/12/15 02:32:08;;;;;;;;;20.00;17.00;;;;;11.78;70.50;102579.84;5070402;28;45130;-75
2023/12/15 02:34:33;;;;;;;;;16.67;15.67;;;;;11.96;70.77;102614.16;5073868;28;44979;-78
2023/12/15 02:37:00;;;;;;;;;14.33;14.33;;;;;11.87;70.51;102597.88;5072374;28;45070;-78
2023/12/15 02:39:25;;;;;;;;;12.00;12.00;;;;;11.61;70.75;102547.28;5071703;28;45078;-75
2023/12/15 02:41:50;;;;;;;;;13.67;13.00;;;;;11.80;70.31;102579.72;5072838;28;45182;-76
2023/12/15 02:44:15;;;;;;;;;12.33;10.00;;;;;12.02;70.09;102632.41;5072486;28;45213;-77
2023/12/15 02:46:41;;;;;;;;;11.00;10.00;;;;;12.01;70.17;102623.53;5058725;28;45079;-76
2023/12/15 02:49:07;;;;;;;;;12.67;10.67;;;;;11.61;70.16;102548.16;5052460;28;45353;-77
2023/12/15 02:51:33;;;;;;;;;11.33;10.67;;;;;11.93;70.01;102615.25;5073175;28;45112;-78
2023/12/15 02:54:00;;;;;;;;;15.67;9.33;;;;;11.88;69.80;102618.22;5074009;28;45494;-76
2023/12/15 02:56:26;;;;;;;;;11.33;9.67;;;;;11.83;70.04;102623.03;5074040;28;45781;-80
2023/12/15 02:58:51;;;;;;;;;16.33;14.00;;;;;11.81;70.26;102618.75;5073635;28;45291;-78
2023/12/15 03:01:17;;;;;;;;;14.33;12.33;;;;;11.98;69.81;102644.22;5069647;28;45296;-78
2023/12/15 03:03:43;;;;;;;;;14.33;11.00;;;;;11.89;69.79;102624.41;5075387;28;45020;-79
2023/12/15 03:06:08;;;;;;;;;13.33;13.00;;;;;11.98;70.30;102650.41;5074833;28;45938;-79
2023/12/15 03:08:33;;;;;;;;;13.00;11.67;;;;;11.96;69.90;102652.34;5075218;28;45058;-80
2023/12/15 03:10:59;;;;;;;;;13.00;10.33;;;;;11.96;69.94;102663.00;5056527;28;45241;-77
2023/12/15 03:13:25;;;;;;;;;15.00;15.00;;;;;11.50;69.69;102594.19;5038762;28;45400;-79
2023/12/15 03:15:51;;;;;;;;;12.00;11.67;;;;;11.86;69.83;102661.94;5047555;28;45452;-78
2023/12/15 03:18:17;;;;;;;;;11.33;11.33;;;;;11.77;69.74;102668.69;5066773;28;45345;-80
2023/12/15 03:20:44;;;;;;;;;11.67;10.67;;;;;11.73;69.52;102669.88;5064521;28;45211;-76
2023/12/15 03:23:09;;;;;;;;;11.67;9.67;;;;;11.62;69.94;102672.44;5046141;28;45455;-78
2023/12/15 03:25:35;;;;;;;;;10.00;8.00;;;;;11.57;69.77;102655.88;5054230;28;45933;-80
2023/12/15 03:28:00;;;;;;;;;14.00;12.00;;;;;11.59;69.72;102667.28;5058800;28;45217;-78
2023/12/15 03:30:26;;;;;;;;;11.00;8.00;;;;;11.67;70.20;102691.63;5058030;28;45302;-77
2023/12/15 03:32:51;;;;;;;;;12.33;11.33;;;;;11.65;69.76;102696.19;5062931;28;44930;-79
2023/12/15 03:35:17;;;;;;;;;9.67;9.33;;;;;11.65;70.41;102684.69;5062156;28;45621;-79
2023/12/15 03:37:42;;;;;;;;;15.33;11.67;;;;;11.68;70.07;102689.81;5060076;28;45548;-80
2023/12/15 03:40:09;;;;;;;;;11.67;11.67;;;;;11.68;70.57;102698.66;5045814;28;45475;-79
2023/12/15 03:42:35;;;;;;;;;8.33;8.00;;;;;11.69;70.30;102712.81;5037268;28;45627;-77
2023/12/15 03:45:00;;;;;;;;;12.67;10.00;;;;;11.51;70.48;102677.63;5036323;28;46395;-79
2023/12/15 03:47:25;;;;;;;;;16.67;12.00;;;;;11.62;70.25;102700.88;5058143;28;45458;-82
2023/12/15 03:49:51;;;;;;;;;10.00;10.00;;;;;11.20;70.52;102637.03;5052720;28;45429;-78
2023/12/15 03:52:16;;;;;;;;;11.00;9.33;;;;;11.71;70.44;102726.91;5036154;28;45656;-78
2023/12/15 03:54:41;;;;;;;;;13.00;11.67;;;;;11.52;70.27;102705.97;5036539;28;46198;-79
2023/12/15 03:57:07;;;;;;;;;13.00;13.00;;;;;11.60;70.16;102719.59;5035997;28;45449;-79
2023/12/15 03:59:32;;;;;;;;;13.00;12.00;;;;;11.54;70.29;102712.03;5037448;28;45477;-80
2023/12/15 04:01:58;;;;;;;;;14.67;13.33;;;;;11.75;70.57;102739.91;5044439;28;45572;-80
2023/12/15 04:04:23;;;;;;;;;11.00;10.00;;;;;11.77;70.05;102743.31;5043055;28;46298;-78
2023/12/15 04:06:48;;;;;;;;;13.33;12.33;;;;;11.70;70.03;102739.38;5056166;28;45330;-79
2023/12/15 04:09:14;;;;;;;;;12.00;9.00;;;;;11.47;69.51;102698.28;5056270;28;45347;-80
2023/12/15 04:11:39;;;;;;;;;13.67;11.00;;;;;11.67;69.95;102736.91;5055598;28;45565;-80
2023/12/15 04:14:05;;;;;;;;;12.67;12.67;;;;;11.82;69.33;102757.25;5054206;28;46111;-77
2023/12/15 04:16:31;;;;;;;;;9.67;9.67;;;;;11.82;69.44;102767.91;5042609;28;45827;-79
2023/12/15 04:18:58;;;;;;;;;14.67;12.67;;;;;11.77;69.55;102750.47;5050390;28;45658;-78
2023/12/15 04:21:24;;;;;;;;;13.67;12.33;;;;;11.67;69.59;102736.06;5055974;28;45768;-78
2023/12/15 04:23:50;;;;;;;;;8.00;6.33;;;;;11.88;69.16;102770.16;5056039;28;46444;-79
2023/12/15 04:26:15;;;;;;;;;14.00;14.00;;;;;11.82;69.40;102757.25;5055400;28;45710;-80
2023/12/15 04:28:41;;;;;;;;;11.67;10.00;;;;;11.86;69.32;102764.06;5054426;28;45377;-76
2023/12/15 04:31:06;;;;;;;;;10.00;10.00;;;;;11.85;69.39;102762.38;5042584;28;45516;-74
2023/12/15 04:33:32;;;;;;;;;14.00;13.00;;;;;11.51;69.19;102704.25;5035698;28;45366;-78
2023/12/15 04:35:58;;;;;;;;;11.00;9.33;;;;;11.84;69.46;102754.47;5035217;28;45441;-79
2023/12/15 04:38:23;;;;;;;;;15.33;13.67;;;;;11.93;69.49;102774.31;5035415;28;45683;-80
2023/12/15 04:40:50;;;;;;;;;15.67;13.33;;;;;11.79;69.20;102756.56;5036192;28;45461;-79
2023/12/15 04:43:15;;;;;;;;;10.67;8.33;;;;;11.95;69.45;102785.72;5034928;28;45492;-80
2023/12/15 04:45:41;;;;;;;;;13.67;10.33;;;;;11.96;69.22;102792.75;5042407;28;45473;-78
2023/12/15 04:48:06;;;;;;;;;14.00;12.67;;;;;11.95;69.62;102799.06;5049778;28;45784;-78
2023/12/15 04:50:31;;;;;;;;;14.33;13.33;;;;;11.95;69.43;102799.91;5055621;28;45469;-79
2023/12/15 04:52:57;;;;;;;;;11.67;10.67;;;;;11.95;69.79;102804.38;5053695;28;45905;-80
2023/12/15 04:55:22;;;;;;;;;12.67;11.00;;;;;11.98;69.08;102801.50;5033515;28;45465;-77
2023/12/15 04:57:47;;;;;;;;;11.67;8.00;;;;;11.81;69.28;102794.63;5054397;28;45661;-77
2023/12/15 05:00:13;;;;;;;;;14.00;11.67;;;;;11.96;69.42;102814.09;5056169;28;45420;-75
2023/12/15 05:02:38;;;;;;;;;12.00;10.33;;;;;11.80;69.66;102795.59;5057144;28;45330;-77
2023/12/15 05:05:04;;;;;;;;;10.00;9.33;;;;;11.92;69.38;102815.25;5070481;28;45061;-77
2023/12/15 05:07:30;;;;;;;;;13.67;10.00;;;;;11.86;69.61;102806.72;5058643;28;45296;-78
2023/12/15 05:09:55;;;;;;;;;8.67;7.33;;;;;11.94;69.76;102824.84;5053207;28;45124;-80
2023/12/15 05:12:20;;;;;;;;;11.33;10.67;;;;;11.96;69.38;102832.75;5052576;28;45806;-79
2023/12/15 05:14:46;;;;;;;;;13.00;11.33;;;;;11.90;69.63;102809.16;5053314;28;45221;-79
2023/12/15 05:17:11;;;;;;;;;10.33;9.00;;;;;11.79;69.50;102800.06;5042651;28;45650;-76
2023/12/15 05:19:36;;;;;;;;;10.67;9.67;;;;;11.67;69.47;102790.19;5035037;28;45458;-79
2023/12/15 05:22:02;;;;;;;;;9.33;8.00;;;;;11.83;69.38;102817.59;5046000;28;46222;-78
2023/12/15 05:24:31;;;;;;;;;11.33;11.00;;;;;11.99;69.82;102844.06;5054262;28;46088;-78
2023/12/15 05:26:57;;;;;;;;;13.67;12.33;;;;;11.91;69.64;102826.88;5054280;28;45337;-77
2023/12/15 05:29:22;;;;;;;;;16.33;11.00;;;;;11.91;69.61;102819.72;5045084;28;45750;-76
2023/12/15 05:31:47;;;;;;;;;13.00;11.67;;;;;12.01;69.75;102835.94;5033324;28;45626;-78
2023/12/15 05:34:13;;;;;;;;;12.33;9.33;;;;;12.01;69.40;102846.63;5033855;28;47641;-79
2023/12/15 05:36:40;;;;;;;;;13.00;11.33;;;;;11.99;69.50;102846.72;5034544;28;45322;-78
2023/12/15 05:39:05;;;;;;;;;12.33;11.33;;;;;11.99;69.68;102837.88;5035142;28;45432;-78
2023/12/15 05:41:31;;;;;;;;;10.67;9.67;;;;;11.94;69.75;102835.50;5040018;28;46546;-77
2023/12/15 05:43:56;;;;;;;;;9.67;9.67;;;;;11.57;69.67;102778.44;5072425;28;45153;-77
2023/12/15 05:46:21;;;;;;;;;14.00;11.00;;;;;11.66;69.27;102787.63;5072692;28;45004;-75
2023/12/15 05:48:47;;;;;;;;;16.67;13.67;;;;;11.85;69.37;102821.00;5071845;28;45075;-77
2023/12/15 05:51:12;;;;;;;;;11.33;11.33;;;;;11.67;69.37;102784.88;5052131;28;45538;-75
2023/12/15 05:53:37;;;;;;;;;13.00;8.67;;;;;12.00;69.38;102843.09;5052858;28;44957;-78
2023/12/15 05:56:04;;;;;;;;;11.33;10.00;;;;;11.49;69.74;102757.63;5052501;28;45114;-78
2023/12/15 05:58:29;;;;;;;;;11.67;11.67;;;;;11.83;69.89;102816.72;5051496;28;45159;-77
2023/12/15 06:00:55;;;;;;;;;13.33;13.33;;;;;11.95;69.57;102841.69;5038263;28;45760;-80
2023/12/15 06:03:20;;;;;;;;;13.00;12.33;;;;;11.97;69.92;102851.31;5035396;28;45494;-80
2023/12/15 06:05:46;;;;;;;;;12.67;12.00;;;;;11.95;69.87;102873.69;5037826;28;45394;-80
2023/12/15 06:08:13;;;;;;;;;12.67;11.00;;;;;11.96;69.57;102859.41;5039339;28;45216;-80
2023/12/15 06:10:39;;;;;;;;;12.00;11.33;;;;;11.90;69.57;102849.16;5040159;28;45682;-79
2023/12/15 06:13:06;;;;;;;;;10.00;9.33;;;;;11.89;69.57;102853.63;5040520;28;45629;-79
2023/12/15 06:15:31;;;;;;;;;11.67;11.33;;;;;11.96;70.08;102852.25;5054924;28;45536;-80
2023/12/15 06:17:57;;;;;;;;;11.33;11.33;;;;;11.76;69.70;102828.69;5041640;28;45356;-78
2023/12/15 06:20:22;;;;;;;;;14.33;13.00;;;;;11.70;69.51;102816.63;5052991;28;46148;-79
2023/12/15 06:22:47;;;;;;;;;14.00;13.00;;;;;11.97;69.68;102867.28;5065626;28;45133;-80
2023/12/15 06:25:13;;;;;;;;;13.00;9.00;;;;;11.98;69.60;102862.81;5054252;28;45238;-81
2023/12/15 06:27:38;;;;;;;;;14.33;10.33;;;;;11.90;69.80;102855.34;5054520;28;44926;-77
2023/12/15 06:30:04;;;;;;;;;13.00;11.00;;;;;11.99;69.47;102868.03;5052833;28;45711;-79
2023/12/15 06:32:29;;;;;;;;;17.00;14.00;;;;;11.81;69.55;102848.81;5053955;28;44910;-79
2023/12/15 06:34:55;;;;;;;;;13.33;12.00;;;;;11.94;69.99;102879.97;5054735;28;45062;-80
2023/12/15 06:37:20;;;;;;;;;12.00;10.33;;;;;11.79;69.92;102864.03;5054606;28;45095;-79
2023/12/15 06:39:47;;;;;;;;;11.00;11.00;;;;;11.73;69.85;102864.41;5051703;28;45437;-78
2023/12/15 06:42:12;;;;;;;;;12.00;12.00;;;;;11.95;69.77;102903.88;5054644;28;45322;-77
2023/12/15 06:44:39;;;;;;;;;14.67;12.00;;;;;11.97;70.32;102898.44;5053676;28;45135;-76
2023/12/15 06:47:05;;;;;;;;;10.67;10.33;;;;;11.59;70.09;102830.66;5066502;28;45117;-79
2023/12/15 06:49:31;;;;;;;;;11.67;11.33;;;;;11.59;69.76;102827.13;5074957;28;46038;-77
2023/12/15 06:51:58;;;;;;;;;10.00;10.00;;;;;11.90;69.82;102879.31;5051776;28;45629;-84
2023/12/15 06:54:23;;;;;;;;;15.33;12.67;;;;;11.97;70.15;102895.75;5053770;28;45262;-78
2023/12/15 06:56:48;;;;;;;;;17.67;12.67;;;;;11.56;69.77;102830.00;5052016;28;45330;-79
2023/12/15 06:59:14;;;;;;;;;13.67;13.67;;;;;11.63;70.30;102857.97;5052409;28;45105;-77
2023/12/15 07:01:39;;;;;;;;;12.67;11.67;;;;;11.90;70.38;102910.47;5052035;28;44929;-78
2023/12/15 07:04:05;;;;;;;;;12.33;11.00;;;;;11.80;69.96;102878.19;5053736;28;45466;-77
2023/12/15 07:06:30;;;;;;;;;17.00;15.33;;;;;11.56;70.51;102840.66;5053425;28;44927;-79
2023/12/15 07:08:55;;;;;;;;;12.67;11.67;;;;;11.84;70.54;102917.91;5054439;28;45136;-80
2023/12/15 07:11:21;;;;;;;;;10.33;10.33;;;;;11.79;70.56;102919.13;5054259;28;44902;-78
2023/12/15 07:13:47;;;;;;;;;17.00;14.00;;;;;11.89;70.76;102952.25;5062800;28;45277;-79
2023/12/15 07:16:12;;;;;;;;;17.33;15.33;;;;;11.82;70.41;102940.28;5062424;28;45363;-78
2023/12/15 07:18:40;;;;;;;;;14.67;13.00;;;;;11.88;70.24;102948.72;5048489;28;45953;-79
2023/12/15 07:21:06;;;;;;;;;11.67;11.00;;;;;11.67;70.63;102918.09;5041430;28;45058;-80
2023/12/15 07:23:31;;;;;;;;;16.33;15.00;;;;;11.85;70.85;102959.59;5043816;28;45433;-77
2023/12/15 07:25:57;;;;;;;;;12.67;10.33;;;;;12.04;70.44;102979.75;5044236;28;45489;-79
2023/12/15 07:28:22;;;;;;;;;13.67;11.00;;;;;11.99;70.15;102990.69;5040906;28;45666;-79
2023/12/15 07:30:47;;;;;;;;;13.00;13.00;;;;;12.07;70.58;102985.72;5045153;28;45393;-79
2023/12/15 07:33:13;;;;;;;;;12.00;11.00;;;;;12.06;70.77;102967.16;5044916;28;45433;-78
2023/12/15 07:35:38;;;;;;;;;14.33;13.00;;;;;12.12;70.67;102966.75;5044612;28;45464;-79
2023/12/15 07:38:03;;;;;;;;;12.00;11.33;;;;;11.68;70.43;102893.16;5036357;28;46055;-79
2023/12/15 07:40:29;;;;;;;;;15.67;14.67;;;;;11.76;70.23;102913.97;5046922;28;45940;-77
2023/12/15 07:42:55;;;;;;;;;14.00;14.00;;;;;11.90;69.97;102947.78;5046479;28;45627;-81
2023/12/15 07:45:21;;;;;;;;;20.67;16.33;;;;;11.80;70.05;102945.69;5060508;28;45282;-80
2023/12/15 07:47:47;;;;;;;;;14.00;13.00;;;;;11.85;69.74;102943.59;5056507;28;45737;-80
2023/12/15 07:50:13;;;;;;;;;14.67;12.00;;;;;12.02;69.51;102984.31;5040814;28;45357;-78
2023/12/15 07:52:38;;;;;;;;;23.00;18.00;;;;;12.11;72.23;103013.03;5044680;28;45507;-80
2023/12/15 07:55:04;;;;;;;;;16.00;13.33;;;;;11.98;70.75;102998.78;5047398;28;45501;-80
2023/12/15 07:57:32;;;;;;;;;13.33;13.00;;;;;11.90;70.68;102987.75;5051159;28;46436;-79
2023/12/15 07:59:58;;;;;;;;;16.67;15.67;;;;;12.01;70.19;103017.25;5049129;28;45583;-79
2023/12/15 08:02:23;;;;;;;;;15.00;13.33;;;;;11.83;70.56;102995.31;5041983;28;45330;-77
2023/12/15 08:04:48;;;;;;;;;15.33;10.33;;;;;11.43;70.36;102925.00;5045407;28;45692;-80
2023/12/15 08:07:14;;;;;;;;;16.00;15.00;;;;;11.93;70.61;103019.53;5045882;28;46940;-79
2023/12/15 08:09:39;;;;;;;;;18.33;13.67;;;;;11.92;70.17;103033.84;5039769;28;45551;-78
2023/12/15 08:12:05;;;;;;;;;15.00;14.00;;;;;11.40;70.86;102943.78;5040079;28;47029;-78
2023/12/15 08:14:30;;;;;;;;;16.00;16.00;;;;;11.94;70.39;103037.25;5054416;28;45646;-79
2023/12/15 08:16:55;;;;;;;;;17.33;15.00;;;;;11.93;70.44;103040.88;5060122;28;45389;-77
2023/12/15 08:19:21;;;;;;;;;23.33;21.33;;;;;11.27;70.22;102930.41;5058459;28;45380;-78
2023/12/15 08:21:48;;;;;;;;;17.67;14.67;;;;;11.47;70.03;102974.44;5058117;28;45836;-78
2023/12/15 08:24:13;;;;;;;;;17.00;14.67;;;;;11.81;70.14;103018.50;5065076;28;45255;-80
2023/12/15 08:26:39;;;;;;;;;19.50;17.00;;;;;11.76;70.38;103016.09;5053848;28;46542;-80
2023/12/15 08:29:04;;;;;;;;;16.33;13.33;;;;;11.98;70.22;103065.41;5057081;28;45338;-81
2023/12/15 08:31:30;;;;;;;;;16.00;13.33;;;;;11.77;69.77;103030.28;5055761;28;45617;-81
2023/12/15 08:33:55;;;;;;;;;13.33;13.33;;;;;11.87;70.06;103034.97;5055311;28;45538;-79
2023/12/15 08:36:21;;;;;;;;;14.00;12.67;;;;;10.98;69.91;102893.09;5062451;28;46637;-78
2023/12/15 08:38:47;;;;;;;;;14.33;12.00;;;;;10.61;69.67;102825.34;5054029;28;44741;-79
2023/12/15 08:41:12;;;;;;;;;13.67;10.67;;;;;12.03;70.11;103068.69;5063552;28;45431;-77
2023/12/15 08:43:38;;;;;;;;;9.33;8.67;;;;;12.08;70.00;103077.25;5061782;28;45456;-79
2023/12/15 08:46:04;;;;;;;;;12.67;11.33;;;;;12.10;69.54;103075.31;5061743;28;45929;-79
2023/12/15 08:48:29;;;;;;;;;13.00;12.00;;;;;11.56;69.60;102988.03;5061172;28;45352;-78
2023/12/15 08:50:55;;;;;;;;;24.67;22.00;;;;;12.14;69.70;103082.16;5064337;28;44770;-81
2023/12/15 08:53:24;;;;;;;;;13.00;10.67;;;;;11.98;69.53;103060.09;5064722;28;45498;-79
2023/12/15 08:55:49;;;;;;;;;15.33;14.00;;;;;11.74;69.15;103014.47;5062932;28;46321;-81
2023/12/15 08:58:15;;;;;;;;;15.33;15.33;;;;;11.80;69.34;103014.13;5061356;28;46252;-78
2023/12/15 09:00:42;;;;;;;;;15.00;13.00;;;;;11.95;69.32;103028.31;5060633;28;45378;-82
2023/12/15 09:03:08;;;;;;;;;9.00;8.00;;;;;11.86;69.51;103025.28;5058206;28;45024;-77
2023/12/15 09:05:34;;;;;;;;;17.00;15.00;;;;;12.23;69.48;103084.28;5059912;28;45376;-79
2023/12/15 09:08:00;;;;;;;;;18.00;17.00;;;;;12.29;69.38;103081.22;5062920;28;45774;-78
2023/12/15 09:10:32;;;;;;;;;15.67;15.00;;;;;12.02;68.96;103033.16;5059951;28;45094;-79
2023/12/15 09:12:57;;;;;;;;;16.00;14.33;;;;;12.11;69.19;103055.72;5055575;28;45734;-81
2023/12/15 09:15:23;;;;;;;;;14.00;14.00;;;;;12.37;69.13;103099.38;5062880;28;45300;-79
2023/12/15 09:17:48;;;;;;;;;17.00;14.67;;;;;11.24;68.88;102904.81;5045315;28;45531;-79
2023/12/15 09:20:14;;;;;;;;;16.00;15.00;;;;;11.99;68.52;103019.16;5067099;28;45302;-78
2023/12/15 09:22:40;;;;;;;;;17.67;14.00;;;;;10.63;68.26;102783.53;5054815;28;45259;-78
2023/12/15 09:25:07;;;;;;;;;16.33;14.33;;;;;12.47;68.32;103114.72;5057174;28;45350;-79
2023/12/15 09:27:32;;;;;;;;;18.00;16.00;;;;;12.34;68.48;103087.09;5050121;28;45412;-77
2023/12/15 09:29:59;;;;;;;;;17.67;16.00;;;;;12.55;68.26;103108.00;5068047;28;45200;-80
2023/12/15 09:32:25;;;;;;;;;18.33;15.33;;;;;12.57;68.08;103100.75;5072391;28;45237;-78
2023/12/15 09:34:50;;;;;;;;;16.00;13.33;;;;;12.08;67.83;103026.56;5063736;28;46433;-77
2023/12/15 09:37:15;;;;;;;;;26.67;23.00;;;;;12.60;68.15;103117.44;5056163;28;45379;-77
2023/12/15 09:39:44;;;;;;;;;16.33;15.67;;;;;12.64;67.57;103113.63;5057643;28;45521;-80
2023/12/15 09:42:09;;;;;;;;;15.67;14.00;;;;;11.71;67.92;102946.25;5063025;28;44944;-77
2023/12/15 09:44:35;;;;;;;;;20.00;18.00;;;;;11.85;67.59;102966.72;5054416;28;46602;-79
2023/12/15 09:47:01;;;;;;;;;20.00;16.67;;;;;12.64;67.48;103096.75;5040957;28;45300;-79
2023/12/15 09:49:30;;;;;;;;;17.33;14.33;;;;;12.36;67.65;103038.97;5042384;28;45498;-77
2023/12/15 09:52:01;;;;;;;;;15.00;15.00;;;;;12.95;67.24;103138.28;5057989;28;45475;-79
2023/12/15 09:54:27;;;;;;;;;19.67;16.33;;;;;12.73;67.10;103096.13;5056736;28;46489;-78
2023/12/15 09:56:55;;;;;;;;;14.00;14.00;;;;;12.87;66.99;103124.63;5057984;28;45487;-81
2023/12/15 09:59:21;;;;;;;;;17.67;16.00;;;;;12.47;66.52;103052.50;5039489;28;45771;-78
2023/12/15 10:01:47;;;;;;;;;14.33;13.33;;;;;13.14;66.38;103152.16;5044114;28;45638;-77
2023/12/15 10:04:12;;;;;;;;;21.67;20.00;;;;;13.08;66.51;103129.38;5044342;28;45586;-79
2023/12/15 10:06:38;;;;;;;;;23.67;16.00;;;;;13.28;66.07;103156.63;5047745;28;45429;-80
2023/12/15 10:09:13;;;;;;;;;12.67;11.67;;;;;13.35;66.03;103158.75;5050173;28;45456;-80
2023/12/15 10:11:39;;;;;;;;;21.00;18.67;;;;;13.01;66.24;103098.72;5055133;28;45528;-81
2023/12/15 10:14:07;;;;;;;;;20.67;17.00;;;;;12.63;65.39;103025.66;5056038;28;45271;-79
2023/12/15 10:16:34;;;;;;;;;17.00;16.33;;;;;13.45;65.33;103168.84;5065079;28;45298;-81
2023/12/15 10:19:05;;;;;;;;;13.67;13.67;;;;;13.44;65.30;103159.97;5048701;28;45050;-83
2023/12/15 10:21:32;;;;;;;;;14.67;12.67;;;;;13.25;64.89;103136.31;5059017;28;45644;-79
2023/12/15 10:23:59;;;;;;;;;15.00;14.00;;;;;13.52;65.05;103165.63;5045007;28;45371;-81
2023/12/15 10:26:24;;;;;;;;;15.67;14.67;;;;;13.59;64.95;103171.41;5040033;28;45354;-80
2023/12/15 10:28:53;;;;;;;;;22.33;19.33;;;;;13.63;64.47;103168.44;5039626;28;45524;-79
2023/12/15 10:31:19;;;;;;;;;21.00;17.33;;;;;13.59;64.36;103166.94;5055700;28;45251;-82
2023/12/15 10:33:45;;;;;;;;;15.33;14.00;;;;;13.01;64.21;103053.31;5054283;28;45635;-80
2023/12/15 10:36:13;;;;;;;;;15.67;15.67;;;;;13.76;64.23;103183.63;5057609;28;45574;-78
2023/12/15 10:38:39;;;;;;;;;16.67;15.67;;;;;13.67;63.97;103175.28;5054659;28;45521;-77
2023/12/15 10:41:07;;;;;;;;;28.67;22.67;;;;;13.22;64.48;103092.94;5052893;28;45390;-79
2023/12/15 10:43:34;;;;;;;;;21.00;16.33;;;;;13.77;63.80;103180.84;5047536;28;45352;-77
2023/12/15 10:46:01;;;;;;;;;18.00;14.00;;;;;13.77;62.57;103174.66;5059947;28;46945;-78
2023/12/15 10:48:26;;;;;;;;;20.67;17.67;;;;;13.73;62.86;103160.66;5064309;28;45018;-80
2023/12/15 10:50:55;;;;;;;;;20.00;16.00;;;;;13.94;62.56;103188.56;5044942;28;45520;-78
2023/12/15 10:53:21;;;;;;;;;22.33;18.67;;;;;13.70;62.22;103137.66;5036606;28;46329;-77
2023/12/15 10:55:46;;;;;;;;;20.00;18.00;;;;;14.23;62.81;103215.13;5059909;28;45321;-76
2023/12/15 10:58:13;;;;;;;;;21.67;19.33;;;;;13.86;62.53;103158.00;5043572;28;44883;-78
2023/12/15 11:00:39;;;;;;;;;34.00;30.67;;;;;14.23;62.59;103215.97;5044717;28;45436;-78
2023/12/15 11:03:10;;;;;;;;;25.33;25.33;;;;;14.29;62.25;103231.59;5038650;28;45603;-78
2023/12/15 11:05:36;;;;;;;;;21.33;18.33;;;;;14.19;61.89;103224.31;5052186;28;45384;-77